Time;durP1;ratioP1;P1;durP2;ratioP2;P2;SDS_P1;SDS_P2;PMS_P1;PMS_P2;Temp;Humidity;BMP_temperature;BMP_pressure;BME280_temperature;BME280_humidity;BME280_pressure;Samples;Min_cycle;Max_cycle;Signal;HPM_P1;HPM_P2
2022/11/17 00:01:24;;;;;;;;;;;7.90;99.90;;;;;;5074631;28;20143;-65
2022/11/17 00:03:50;;;;;;;;;;;7.90;99.90;;;;;;5097683;28;19971;-72
2022/11/17 00:06:16;;;;;;;;;;;7.90;99.90;;;;;;5092128;28;19924;-67
2022/11/17 00:08:42;;;;;;;;;;;7.90;99.90;;;;;;5074860;28;20281;-65
2022/11/17 00:11:07;;;;;;;;;;;7.90;99.90;;;;;;5094395;28;19939;-64
2022/11/17 00:16:18;;;;;;;;;;;7.90;99.90;;;;;;5088420;28;20441;-65
2022/11/17 00:21:29;;;;;;;;;;;7.90;99.90;;;;;;5092352;28;19973;-65
2022/11/17 00:23:55;;;;;;;;;;;7.90;99.90;;;;;;5092396;28;19928;-65
2022/11/17 00:26:28;;;;;;;;;;;7.90;99.90;;;;;;5106085;28;19932;-67
2022/11/17 00:29:01;;;;;;;;;;;7.80;99.90;;;;;;5074083;28;19924;-65
2022/11/17 00:34:30;;;;;;;;;;;7.90;99.90;;;;;;5091142;28;19930;-65
2022/11/17 00:36:55;;;;;;;;;;;7.90;99.90;;;;;;5105491;28;19935;-65
2022/11/17 00:39:22;;;;;;;;;;;7.90;99.90;;;;;;5085146;28;20277;-65
2022/11/17 00:41:47;;;;;;;;;;;7.90;99.90;;;;;;5092091;28;19924;-65
2022/11/17 00:44:13;;;;;;;;;;;8.00;99.90;;;;;;5095327;28;19924;-64
2022/11/17 00:46:39;;;;;;;;;;;8.40;99.90;;;;;;5097476;28;19932;-65
2022/11/17 00:49:05;;;;;;;;;;;7.90;99.90;;;;;;5091107;28;20310;-64
2022/11/17 00:51:31;;;;;;;;;;;8.20;99.90;;;;;;5074224;28;20323;-64
2022/11/17 00:53:57;;;;;;;;;;;7.90;99.90;;;;;;5103131;28;20011;-65
2022/11/17 00:56:22;;;;;;;;;;;7.90;99.90;;;;;;5092537;28;20438;-65
2022/11/17 00:58:48;;;;;;;;;;;7.90;99.90;;;;;;5091299;28;19928;-66
2022/11/17 01:01:13;;;;;;;;;;;7.90;99.90;;;;;;5072930;28;19974;-66
2022/11/17 01:03:39;;;;;;;;;;;7.90;99.90;;;;;;5073476;28;19924;-67
2022/11/17 01:06:05;;;;;;;;;;;7.80;99.90;;;;;;5073749;28;19928;-66
2022/11/17 01:08:31;;;;;;;;;;;7.80;99.90;;;;;;5091269;28;19932;-66
2022/11/17 01:11:02;;;;;;;;;;;8.00;99.90;;;;;;5073337;28;20057;-66
2022/11/17 01:13:28;;;;;;;;;;;7.80;99.90;;;;;;5091716;28;19969;-65
2022/11/17 01:15:53;;;;;;;;;;;7.70;99.90;;;;;;5079596;28;19932;-66
2022/11/17 01:18:19;;;;;;;;;;;7.70;99.90;;;;;;5072668;28;19927;-66
2022/11/17 01:20:44;;;;;;;;;;;7.70;99.90;;;;;;5090939;28;20046;-66
2022/11/17 01:23:10;;;;;;;;;;;7.70;99.90;;;;;;5072535;28;19932;-69
2022/11/17 01:25:37;;;;;;;;;;;7.60;99.90;;;;;;5089905;28;20365;-67
2022/11/17 01:28:02;;;;;;;;;;;7.60;99.90;;;;;;5093574;28;19932;-65
2022/11/17 01:30:28;;;;;;;;;;;7.60;99.90;;;;;;5062617;28;19981;-70
2022/11/17 01:32:53;;;;;;;;;;;7.70;99.90;;;;;;5091172;28;19924;-65
2022/11/17 01:35:19;;;;;;;;;;;7.60;99.90;;;;;;5092275;28;19928;-65
2022/11/17 01:37:44;;;;;;;;;;;7.60;99.90;;;;;;5074409;28;19928;-65
2022/11/17 01:40:12;;;;;;;;;;;7.60;99.90;;;;;;5092159;28;19985;-65
2022/11/17 01:42:37;;;;;;;;;;;7.60;99.90;;;;;;5092238;28;19924;-66
2022/11/17 01:45:15;;;;;;;;;;;7.60;99.90;;;;;;5092612;28;19947;-65
2022/11/17 01:47:44;;;;;;;;;;;7.50;99.90;;;;;;5092342;28;20011;-65
2022/11/17 01:50:28;;;;;;;;;;;7.60;99.90;;;;;;5092045;28;20277;-65
2022/11/17 01:52:55;;;;;;;;;;;7.50;99.90;;;;;;5074453;28;19924;-65
2022/11/17 01:55:22;;;;;;;;;;;7.50;99.90;;;;;;5074384;28;20224;-64
2022/11/17 01:57:50;;;;;;;;;;;7.50;99.90;;;;;;5092373;28;19935;-64
2022/11/17 02:00:15;;;;;;;;;;;7.50;99.90;;;;;;5073899;28;19973;-66
2022/11/17 02:02:42;;;;;;;;;;;7.50;99.90;;;;;;5073843;28;19957;-64
2022/11/17 02:05:29;;;;;;;;;;;7.50;99.90;;;;;;5092250;28;20266;-65
2022/11/17 02:07:56;;;;;;;;;;;7.50;99.90;;;;;;5074284;28;19939;-65
2022/11/17 02:10:21;;;;;;;;;;;7.50;99.90;;;;;;5107925;28;20374;-65
2022/11/17 02:12:47;;;;;;;;;;;7.50;99.90;;;;;;5108247;28;20014;-65
2022/11/17 02:15:13;;;;;;;;;;;7.50;99.90;;;;;;5091863;28;19950;-65
2022/11/17 02:17:40;;;;;;;;;;;7.50;99.90;;;;;;5074329;28;19947;-65
2022/11/17 02:20:11;;;;;;;;;;;7.50;99.90;;;;;;5091802;28;20397;-65
2022/11/17 02:22:36;;;;;;;;;;;7.50;99.90;;;;;;5091954;28;19930;-65
2022/11/17 02:25:11;;;;;;;;;;;7.50;99.90;;;;;;5092043;28;20265;-65
2022/11/17 02:27:55;;;;;;;;;;;7.50;99.90;;;;;;5073881;28;19924;-64
2022/11/17 02:30:21;;;;;;;;;;;7.50;99.90;;;;;;5091547;28;19935;-67
2022/11/17 02:33:05;;;;;;;;;;;7.50;99.90;;;;;;5091993;28;19977;-65
2022/11/17 02:35:39;;;;;;;;;;;7.60;99.90;;;;;;5091837;28;19971;-68
2022/11/17 02:38:16;;;;;;;;;;;7.50;99.90;;;;;;5092011;28;19969;-66
2022/11/17 02:41:04;;;;;;;;;;;7.50;99.90;;;;;;5108001;28;19924;-66
2022/11/17 02:46:22;;;;;;;;;;;7.60;99.90;;;;;;5091689;28;19924;-65
2022/11/17 02:48:51;;;;;;;;;;;7.60;99.90;;;;;;5073969;28;19924;-65
2022/11/17 02:51:19;;;;;;;;;;;7.60;99.90;;;;;;5091364;28;19924;-66
2022/11/17 02:53:45;;;;;;;;;;;7.50;99.90;;;;;;5091584;28;19947;-65
2022/11/17 02:56:11;;;;;;;;;;;7.40;99.90;;;;;;5075872;28;19924;-65
2022/11/17 02:58:36;;;;;;;;;;;7.40;99.90;;;;;;5060102;28;20261;-64
2022/11/17 03:01:22;;;;;;;;;;;7.40;99.90;;;;;;5077268;28;19927;-64
2022/11/17 03:04:05;;;;;;;;;;;7.40;99.90;;;;;;5077113;28;19931;-64
2022/11/17 03:06:41;;;;;;;;;;;7.40;99.90;;;;;;5077072;28;20023;-64
2022/11/17 03:09:14;;;;;;;;;;;7.30;99.90;;;;;;5095365;28;20278;-64
2022/11/17 03:11:45;;;;;;;;;;;7.30;99.90;;;;;;5094427;28;20219;-64
2022/11/17 03:14:23;;;;;;;;;;;7.30;99.90;;;;;;5094841;28;19924;-65
2022/11/17 03:17:04;;;;;;;;;;;7.30;99.90;;;;;;5077164;28;20016;-64
2022/11/17 03:19:48;;;;;;;;;;;7.30;99.90;;;;;;5095019;28;19946;-64
2022/11/17 03:22:21;;;;;;;;;;;7.30;99.90;;;;;;5095156;28;19924;-64
2022/11/17 03:24:51;;;;;;;;;;;7.30;99.90;;;;;;5077229;28;19968;-63
2022/11/17 03:27:19;;;;;;;;;;;7.20;99.90;;;;;;5095127;28;19924;-63
2022/11/17 03:29:48;;;;;;;;;;;7.20;99.90;;;;;;5094232;28;19924;-64
2022/11/17 03:32:15;;;;;;;15.93;12.43;;;7.20;99.90;;;;;;5094646;28;19927;-64
2022/11/17 03:34:48;;;;;;;15.15;12.25;;;7.20;99.90;;;;;;5094119;28;20048;-64
2022/11/17 03:37:18;;;;;;;13.90;12.45;;;7.10;99.90;;;;;;5094485;28;20090;-63
2022/11/17 03:39:49;;;;;;;18.27;14.60;;;7.10;99.90;;;;;;5093961;28;20637;-64
2022/11/17 03:42:19;;;;;;;14.00;11.10;;;7.10;99.90;;;;;;5094325;28;20062;-65
2022/11/17 03:44:51;;;;;;;15.57;13.75;;;7.00;99.90;;;;;;5093946;28;20052;-66
2022/11/17 03:47:19;;;;;;;17.10;12.52;;;7.00;99.90;;;;;;5093763;28;20076;-65
2022/11/17 03:49:50;;;;;;;;;;;7.00;99.90;;;;;;5076245;28;20062;-65
2022/11/17 03:52:15;;;;;;;;;;;6.90;99.90;;;;;;5094072;28;20438;-64
2022/11/17 03:54:41;;;;;;;;;;;6.90;99.90;;;;;;5094248;28;19924;-64
2022/11/17 03:57:11;;;;;;;;;;;6.90;99.90;;;;;;5110162;28;20416;-64
2022/11/17 03:59:42;;;;;;;;;;;6.90;99.90;;;;;;5075898;28;20030;-65
2022/11/17 04:02:08;;;;;;;;;;;6.80;99.90;;;;;;5076258;28;19930;-65
2022/11/17 04:07:17;;;;;;;;;;;6.80;99.90;;;;;;5094200;28;19993;-66
2022/11/17 04:09:43;;;;;;;;;;;6.80;99.90;;;;;;5094081;28;20007;-66
2022/11/17 04:17:37;;;;;;;;;;;6.60;99.90;;;;;;5075915;28;20006;-67
2022/11/17 04:20:03;;;;;;;;;;;6.60;99.90;;;;;;5076336;28;20439;-67
2022/11/17 04:22:28;;;;;;;;;;;6.60;99.90;;;;;;5075948;28;19920;-66
2022/11/17 04:24:54;;;;;;;;;;;6.60;99.90;;;;;;5093636;28;19924;-66
2022/11/17 04:30:04;;;;;;;;;;;6.60;99.90;;;;;;5093769;28;19927;-66
2022/11/17 04:32:30;;;;;;;;;;;6.60;99.90;;;;;;5093848;28;19920;-66
2022/11/17 04:34:55;;;;;;;;;;;6.50;99.90;;;;;;5093433;28;20265;-66
2022/11/17 04:37:21;;;;;;;;;;;6.50;99.90;;;;;;5093861;28;19971;-66
2022/11/17 04:39:47;;;;;;;;;;;6.50;99.90;;;;;;5075358;28;19920;-66
2022/11/17 04:42:12;;;;;;;;;;;6.50;99.90;;;;;;5093648;28;19953;-66
2022/11/17 04:44:38;;;;;;;;;;;6.50;99.90;;;;;;5091998;28;19920;-66
2022/11/17 04:47:04;;;;;;;;;;;6.50;99.90;;;;;;5092354;28;19927;-67
2022/11/17 04:49:31;;;;;;;;;;;6.50;99.90;;;;;;5093805;28;20309;-67
2022/11/17 04:51:56;;;;;;;;;;;6.50;99.90;;;;;;5093255;28;19972;-66
2022/11/17 04:54:25;;;;;;;;;;;6.50;99.90;;;;;;5075394;28;20011;-67
2022/11/17 04:56:51;;;;;;;;;;;6.50;99.90;;;;;;5109016;28;19994;-66
2022/11/17 04:59:17;;;;;;;;;;;6.50;99.90;;;;;;5093345;28;19920;-66
2022/11/17 05:01:43;;;;;;;;;;;6.40;99.90;;;;;;5092925;28;20360;-66
2022/11/17 05:04:10;;;;;;;;;;;6.40;99.90;;;;;;5108692;28;19974;-66
2022/11/17 05:06:40;;;;;;;;;;;6.40;99.90;;;;;;5058286;28;20327;-66
2022/11/17 05:09:09;;;;;;;;;;;6.40;99.90;;;;;;5093043;28;20022;-66
2022/11/17 05:14:20;;;;;;;;;;;6.40;99.90;;;;;;5093049;28;19928;-66
2022/11/17 05:17:04;;;;;;;;;;;6.40;99.90;;;;;;5074539;28;19920;-66
2022/11/17 05:19:31;;;;;;;;;;;6.30;99.90;;;;;;5108516;28;19920;-67
2022/11/17 05:21:56;;;;;;;;;;;6.30;99.90;;;;;;5092557;28;20251;-67
2022/11/17 05:24:22;;;;;;;;;;;6.30;99.90;;;;;;5074634;28;19927;-67
2022/11/17 05:26:48;;;;;;;;;;;6.40;99.90;;;;;;5074523;28;19962;-67
2022/11/17 05:29:15;;;;;;;;;;;6.30;99.90;;;;;;5092675;28;19920;-66
2022/11/17 05:31:42;;;;;;;;;;;6.30;99.90;;;;;;5073777;28;19932;-67
2022/11/17 05:34:09;;;;;;;;;;;6.30;99.90;;;;;;5092552;28;19920;-66
2022/11/17 05:36:35;;;;;;;;;;;6.30;99.90;;;;;;5092578;28;19973;-66
2022/11/17 05:39:00;;;;;;;;;;;6.30;99.90;;;;;;5092366;28;19924;-65
2022/11/17 05:41:27;;;;;;;;;;;6.30;99.90;;;;;;5074581;28;19920;-66
2022/11/17 05:43:53;;;;;;;;;;;6.20;99.90;;;;;;5092283;28;19920;-66
2022/11/17 05:46:19;;;;;;;;;;;6.20;99.90;;;;;;5092564;28;19923;-64
2022/11/17 05:48:47;;;;;;;;;;;6.20;99.90;;;;;;5092032;28;19976;-65
2022/11/17 05:51:13;;;;;;;;;;;6.20;99.90;;;;;;5092453;28;19976;-65
2022/11/17 05:53:38;;;;;;;;;;;6.20;99.90;;;;;;5074217;28;20156;-65
2022/11/17 05:56:10;;;;;;;;;;;6.20;99.90;;;;;;5091973;28;19920;-65
2022/11/17 05:58:37;;;;;;;;;;;6.20;99.90;;;;;;5074440;28;19927;-65
2022/11/17 06:01:04;;;;;;;;;;;6.10;99.90;;;;;;5091954;28;19920;-65
2022/11/17 06:03:32;;;;;;;;;;;6.10;99.90;;;;;;5074268;28;19942;-65
2022/11/17 06:05:58;;;;;;;;;;;6.10;99.90;;;;;;5091942;28;19928;-65
2022/11/17 06:08:24;;;;;;;;;;;6.10;99.90;;;;;;5108183;28;19920;-65
2022/11/17 06:10:49;;;;;;;;;;;6.10;99.90;;;;;;5074117;28;19920;-66
2022/11/17 06:13:15;;;;;;;;;;;6.10;99.90;;;;;;5092013;28;19927;-66
2022/11/17 06:15:41;;;;;;;;;;;6.10;99.90;;;;;;5074221;28;20014;-66
2022/11/17 06:18:09;;;;;;;;;;;6.10;99.90;;;;;;5091921;28;19938;-66
2022/11/17 06:20:37;;;;;;;;;;;6.00;99.90;;;;;;5092029;28;20343;-67
2022/11/17 06:23:04;;;;;;;;;;;6.10;99.90;;;;;;5091795;28;19927;-66
2022/11/17 06:25:31;;;;;;;;;;;6.10;99.90;;;;;;5092162;28;19926;-66
2022/11/17 06:27:57;;;;;;;;;;;6.30;99.90;;;;;;5091614;28;20412;-67
2022/11/17 06:30:23;;;;;;;;;;;6.00;99.90;;;;;;5093359;28;19966;-66
2022/11/17 06:32:49;;;;;;;;;;;6.10;99.90;;;;;;5096254;28;20373;-66
2022/11/17 06:35:15;;;;;;;;;;;6.10;99.90;;;;;;5095874;28;20011;-66
2022/11/17 06:37:41;;;;;;;;;;;6.00;99.90;;;;;;5094781;28;19920;-68
2022/11/17 06:40:07;;;;;;;;;;;6.00;99.90;;;;;;5094469;28;19927;-66
2022/11/17 06:43:08;;;;;;;;;;;6.10;99.90;;;;;;5095960;28;19965;-66
2022/11/17 06:45:24;;;;;;;;;;;6.10;99.90;;;;;;5092296;28;20011;-66
2022/11/17 06:47:53;;;;;;;;;;;6.00;99.90;;;;;;5095760;28;20015;-65
2022/11/17 06:50:19;;;;;;;;;;;6.00;99.90;;;;;;5111882;28;19927;-66
2022/11/17 06:52:45;;;;;;;;;;;6.00;99.90;;;;;;5078042;28;19920;-65
2022/11/17 06:55:10;;;;;;;;;;;6.00;99.90;;;;;;5077670;28;19920;-67
2022/11/17 06:57:36;;;;;;;;;;;6.00;99.90;;;;;;5077814;28;19920;-66
2022/11/17 07:00:03;;;;;;;;;;;6.00;99.90;;;;;;5111151;28;19955;-67
2022/11/17 07:02:30;;;;;;;;;;;6.00;99.90;;;;;;5111023;28;19920;-66
2022/11/17 07:04:55;;;;;;;;;;;6.10;99.90;;;;;;5095442;28;19950;-66
2022/11/17 07:07:21;;;;;;;;;;;6.00;99.90;;;;;;5077602;28;19923;-68
2022/11/17 07:09:47;;;;;;;;;;;6.10;99.90;;;;;;5060217;28;19920;-67
2022/11/17 07:12:14;;;;;;;;;;;6.10;99.90;;;;;;5076582;28;19927;-67
2022/11/17 07:14:40;;;;;;;;;;;6.00;99.90;;;;;;5095158;28;20014;-67
2022/11/17 07:17:06;;;;;;;;;;;6.00;99.90;;;;;;5077168;28;20376;-67
2022/11/17 07:19:32;;;;;;;;;;;6.10;99.90;;;;;;5077035;28;19927;-68
2022/11/17 07:21:57;;;;;;;;;;;6.20;99.90;;;;;;5094976;28;19920;-67
2022/11/17 07:24:23;;;;;;;;;;;6.00;99.90;;;;;;5095101;28;20384;-67
2022/11/17 07:26:48;;;;;;;;;;;6.10;99.90;;;;;;5095069;28;19920;-67
2022/11/17 07:29:14;;;;;;;;;;;6.00;99.90;;;;;;5094711;28;19955;-66
2022/11/17 07:31:39;;;;;;;;;;;6.10;99.90;;;;;;5093171;28;19920;-67
2022/11/17 07:34:05;;;;;;;;;;;6.10;99.90;;;;;;5094593;28;19924;-67
2022/11/17 07:36:30;;;;;;;;;;;6.10;99.90;;;;;;5094611;28;20363;-67
2022/11/17 07:38:56;;;;;;;;;;;6.10;99.90;;;;;;5094408;28;20140;-65
2022/11/17 07:41:22;;;;;;;;;;;6.10;99.90;;;;;;5076105;28;20262;-66
2022/11/17 07:43:47;;;;;;;;;;;6.10;99.90;;;;;;5076740;28;19969;-67
2022/11/17 07:46:14;;;;;;;;;;;6.10;99.90;;;;;;5076681;28;20358;-66
2022/11/17 07:48:40;;;;;;;;;;;6.10;99.90;;;;;;5110672;28;19920;-66
2022/11/17 07:51:06;;;;;;;;;;;6.20;99.90;;;;;;5094423;28;19920;-66
2022/11/17 07:53:33;;;;;;;;;;;6.20;99.90;;;;;;5094433;28;20326;-66
2022/11/17 07:56:06;;;;;;;;;;;6.10;99.90;;;;;;5110730;28;19927;-65
2022/11/17 07:58:32;;;;;;;;;;;6.20;99.90;;;;;;5094738;28;19927;-66
2022/11/17 08:00:57;;;;;;;;;;;6.20;99.90;;;;;;5076452;28;20238;-66
2022/11/17 08:03:23;;;;;;;;;;;6.10;99.90;;;;;;5094197;28;19920;-66
2022/11/17 08:05:48;;;;;;;;;;;6.10;99.90;;;;;;5076395;28;20028;-66
2022/11/17 08:08:14;;;;;;;;;;;6.10;99.90;;;;;;5094279;28;20258;-65
2022/11/17 08:10:41;;;;;;;;;;;6.10;99.90;;;;;;5094474;28;19942;-65
2022/11/17 08:13:07;;;;;;;;;;;6.00;99.90;;;;;;5093933;28;19926;-64
2022/11/17 08:15:33;;;;;;;;;;;6.10;99.90;;;;;;5094404;28;20018;-66
2022/11/17 08:17:59;;;;;;;;;;;6.10;99.90;;;;;;5094551;28;19967;-66
2022/11/17 08:20:26;;;;;;;;;;;6.10;99.90;;;;;;5093736;28;19993;-66
2022/11/17 08:22:52;;;;;;;;;;;6.10;99.90;;;;;;5094234;28;19971;-67
2022/11/17 08:25:18;;;;;;;;;;;6.10;99.90;;;;;;5093771;28;19927;-67
2022/11/17 08:27:44;;;;;;;;;;;6.10;99.90;;;;;;5076301;28;20011;-66
2022/11/17 08:30:10;;;;;;;;;;;6.10;99.90;;;;;;5093968;28;19978;-68
2022/11/17 08:32:35;;;;;;;;;;;6.00;99.90;;;;;;5094011;28;19974;-68
2022/11/17 08:35:03;;;;;;;;;;;6.10;99.90;;;;;;5093841;28;19926;-68
2022/11/17 08:37:29;;;;;;;;;;;6.10;99.90;;;;;;5093701;28;20283;-68
2022/11/17 08:39:54;;;;;;;;;;;6.10;99.90;;;;;;5075783;28;19920;-68
2022/11/17 08:42:20;;;;;;;;;;;6.00;99.90;;;;;;5075513;28;19927;-68
2022/11/17 08:44:45;;;;;;;;;;;6.10;99.90;;;;;;5075969;28;19920;-68
2022/11/17 08:47:11;;;;;;;;;;;6.10;99.90;;;;;;5075264;28;19928;-68
2022/11/17 08:49:37;;;;;;;;;;;6.10;99.90;;;;;;5093857;28;19920;-70
2022/11/17 08:52:02;;;;;;;;;;;6.20;99.90;;;;;;5108957;28;19920;-68
2022/11/17 08:54:28;;;;;;;;;;;6.10;99.90;;;;;;5074973;28;20158;-68
2022/11/17 08:56:57;;;;;;;;;;;6.10;99.90;;;;;;5093773;28;19928;-68
2022/11/17 08:59:23;;;;;;;;;;;6.10;99.90;;;;;;5075639;28;20006;-67
2022/11/17 09:01:48;;;;;;;;;;;6.10;99.90;;;;;;5093801;28;19974;-68
2022/11/17 09:04:14;;;;;;;;;;;6.10;99.90;;;;;;5093377;28;20028;-68
2022/11/17 09:06:40;;;;;;;;;;;6.10;99.90;;;;;;5092303;28;19919;-68
2022/11/17 09:09:05;;;;;;;;;;;6.10;99.90;;;;;;5075659;28;19927;-68
2022/11/17 09:11:31;;;;;;;;;;;6.10;99.90;;;;;;5093158;28;19919;-68
2022/11/17 09:13:57;;;;;;;;;;;6.10;99.90;;;;;;5058535;28;19949;-69
2022/11/17 09:16:24;;;;;;;;;;;6.10;99.90;;;;;;5093151;28;20056;-69
2022/11/17 09:18:54;;;;;;;;;;;6.20;99.90;;;;;;5058483;28;19969;-69
2022/11/17 09:21:20;;;;;;;;;;;6.10;99.90;;;;;;5074867;28;19974;-68
2022/11/17 09:23:46;;;;;;;;;;;6.10;99.90;;;;;;5092913;28;20021;-68
2022/11/17 09:26:13;;;;;;;;;;;6.20;99.90;;;;;;5075057;28;19968;-68
2022/11/17 09:28:39;;;;;;;;;;;6.10;99.90;;;;;;5093338;28;19923;-69
2022/11/17 09:31:09;;;;;;;;;;;6.10;99.90;;;;;;5092942;28;20128;-69
2022/11/17 09:33:34;;;;;;;;;;;6.00;99.90;;;;;;5074496;28;20547;-68
2022/11/17 09:36:00;;;;;;;;;;;6.10;99.90;;;;;;5074847;28;19966;-67
2022/11/17 09:38:26;;;;;;;;;;;6.10;99.90;;;;;;5092303;28;19920;-68
2022/11/17 09:40:54;;;;;;;;;;;6.10;99.90;;;;;;5092991;28;19920;-68
2022/11/17 09:43:27;;;;;;;;;;;6.10;99.90;;;;;;5092556;28;20420;-70
2022/11/17 09:46:04;;;;;;;;;;;6.10;99.90;;;;;;5075029;28;19920;-67
2022/11/17 09:48:39;;;;;;;;;;;6.10;99.90;;;;;;5092494;28;19959;-67
2022/11/17 09:51:08;;;;;;;;;;;6.10;99.90;;;;;;5058100;28;20110;-67
2022/11/17 09:53:38;;;;;;;;;;;6.20;99.90;;;;;;5092237;28;20408;-68
2022/11/17 09:56:06;;;;;;;;;;;6.20;99.90;;;;;;5092399;28;19927;-68
2022/11/17 09:58:36;;;;;;;;;;;6.10;99.90;;;;;;5092349;28;19920;-66
2022/11/17 10:01:01;;;;;;;;;;;6.20;99.90;;;;;;5092720;28;19965;-67
2022/11/17 10:03:31;;;;;;;;;;;6.20;99.90;;;;;;5092137;28;20323;-67
2022/11/17 10:05:57;;;;;;;;;;;6.20;99.90;;;;;;5074328;28;19967;-66
2022/11/17 10:08:30;;;;;;;;;;;6.20;99.90;;;;;;5092046;28;19971;-67
2022/11/17 10:10:56;;;;;;;;;;;6.20;99.90;;;;;;5092700;28;19920;-66
2022/11/17 10:13:21;;;;;;;;;;;6.20;99.90;;;;;;5090828;28;20297;-67
2022/11/17 10:15:48;;;;;;;;;;;6.20;99.90;;;;;;5092421;28;20012;-66
2022/11/17 10:18:14;;;;;;;;;;;6.20;99.90;;;;;;5074323;28;19920;-67
2022/11/17 10:20:41;;;;;;;;;;;6.30;99.90;;;;;;5091850;28;20396;-67
2022/11/17 10:23:11;;;;;;;;;;;7.10;99.90;;;;;;5108117;28;19920;-67
2022/11/17 10:25:38;;;;;;;;;;;6.30;99.90;;;;;;5074272;28;19927;-67
2022/11/17 10:28:05;;;;;;;;;;;6.30;99.90;;;;;;5092490;28;20333;-66
2022/11/17 10:30:31;;;;;;;;;;;6.20;99.90;;;;;;5092075;28;19967;-67
2022/11/17 10:32:57;;;;;;;;;;;6.20;99.90;;;;;;5092287;28;19923;-67
2022/11/17 10:35:24;;;;;;;;;;;6.30;99.90;;;;;;5073952;28;19943;-69
2022/11/17 10:37:52;;;;;;;;;;;6.30;99.90;;;;;;5092107;28;19974;-68
2022/11/17 10:40:22;;;;;;;;;;;6.30;99.90;;;;;;5092067;28;19966;-67
2022/11/17 10:42:59;;;;;;;;;;;6.20;99.90;;;;;;5074089;28;20330;-68
2022/11/17 10:45:24;;;;;;;;;;;6.30;99.90;;;;;;5074173;28;19920;-68
2022/11/17 10:47:50;;;;;;;;;;;6.30;99.90;;;;;;5091866;28;20369;-68
2022/11/17 10:50:29;;;;;;;;;;;6.30;99.90;;;;;;5107774;28;19935;-67
2022/11/17 10:53:14;;;;;;;;;;;6.30;99.90;;;;;;5092030;28;19920;-69
2022/11/17 10:55:41;;;;;;;;;;;6.30;99.90;;;;;;5057223;28;19927;-67
2022/11/17 10:58:16;;;;;;;;;;;6.30;99.90;;;;;;5073802;28;19926;-67
2022/11/17 11:00:42;;;;;;;;;;;6.30;99.90;;;;;;5073940;28;19920;-67
2022/11/17 11:03:16;;;;;;;;;;;6.30;99.90;;;;;;5107626;28;20332;-67
2022/11/17 11:05:53;;;;;;;;;;;6.30;99.90;;;;;;5107300;28;19920;-67
2022/11/17 11:08:21;;;;;;;;;;;6.30;99.90;;;;;;5073543;28;19969;-68
2022/11/17 11:10:49;;;;;;;;;;;6.20;99.90;;;;;;5107384;28;20426;-69
2022/11/17 11:13:20;;;;;;;;;;;6.20;99.90;;;;;;5090457;28;19920;-67
2022/11/17 11:15:46;;;;;;;;;;;6.20;99.90;;;;;;5073594;28;20409;-68
2022/11/17 11:18:13;;;;;;;;;;;6.20;99.90;;;;;;5111188;28;20380;-68
2022/11/17 11:20:42;;;;;;;;;;;6.20;99.90;;;;;;5111093;28;20035;-68
2022/11/17 11:23:13;;;;;;;;;;;6.20;99.90;;;;;;5077311;28;20030;-67
2022/11/17 11:25:46;;;;;;;;;;;6.20;99.90;;;;;;5094949;28;19920;-68
2022/11/17 11:28:18;;;;;;;;;;;6.10;99.90;;;;;;5111239;28;19919;-69
2022/11/17 11:31:08;;;;;;;;;;;6.20;99.90;;;;;;5076524;28;19970;-69
2022/11/17 11:33:52;;;;;;;;;;;6.20;99.90;;;;;;5094788;28;19920;-67
2022/11/17 11:36:24;;;;;;;;;;;6.20;99.90;;;;;;5111168;28;19978;-67
2022/11/17 11:38:58;;;;;;;;;;;6.20;99.90;;;;;;5076864;28;19927;-67
2022/11/17 11:41:34;;;;;;;;;;;6.20;99.90;;;;;;5094866;28;19919;-67
2022/11/17 11:44:19;;;;;;;;;;;6.20;99.90;;;;;;5110824;28;20353;-68
2022/11/17 11:47:03;;;;;;;;;;;6.20;99.90;;;;;;5076608;28;19920;-68
2022/11/17 11:49:43;;;;;;;;;;;6.10;99.90;;;;;;5076972;28;19975;-67
2022/11/17 11:52:18;;;;;;;;;;;6.10;99.90;;;;;;5094848;28;19990;-68
2022/11/17 11:54:47;;;;;;;;;;;6.10;99.90;;;;;;5094479;28;19920;-68
2022/11/17 11:57:14;;;;;;;;;;;6.10;99.90;;;;;;5076765;28;19926;-68
2022/11/17 11:59:49;;;;;;;;;;;6.20;99.90;;;;;;5076527;28;19965;-68
2022/11/17 12:02:23;;;;;;;;;;;6.20;99.90;;;;;;5094688;28;20019;-68
2022/11/17 12:05:04;;;;;;;;;;;6.20;99.90;;;;;;5076561;28;20364;-68
2022/11/17 12:07:36;;;;;;;;;;;6.20;99.90;;;;;;5076646;28;20018;-68
2022/11/17 12:10:20;;;;;;;;;;;6.20;99.90;;;;;;5076535;28;20014;-68
2022/11/17 12:12:46;;;;;;;;;;;6.20;99.90;;;;;;5076265;28;19982;-69
2022/11/17 12:15:12;;;;;;;;;;;6.20;99.90;;;;;;5094303;28;19971;-70
2022/11/17 12:17:54;;;;;;;;;;;6.30;99.90;;;;;;5076134;28;19920;-69
2022/11/17 12:20:29;;;;;;;;;;;6.20;99.90;;;;;;5094458;28;20032;-68
2022/11/17 12:23:06;;;;;;;;;;;6.30;99.90;;;;;;5094022;28;19931;-67
2022/11/17 12:25:34;;;;;;;;;;;6.30;99.90;;;;;;5076435;28;19920;-68
2022/11/17 12:28:34;;;;;;;;;;;6.30;99.90;;;;;;5093638;28;19916;-68
2022/11/17 12:30:59;;;;;;;;;;;6.20;99.90;;;;;;5042782;28;19920;-68
2022/11/17 12:33:44;;;;;;;;;;;6.30;99.90;;;;;;5094172;28;19920;-66
2022/11/17 12:36:30;;;;;;;;;;;6.30;99.90;;;;;;5094269;28;19920;-68
2022/11/17 12:38:57;;;;;;;;;;;6.20;99.90;;;;;;5092812;28;20305;-67
2022/11/17 12:41:41;;;;;;;;;;;6.30;99.90;;;;;;5094090;28;19920;-67
2022/11/17 12:44:25;;;;;;;;;;;6.30;99.90;;;;;;5093673;28;19920;-67
2022/11/17 12:46:54;;;;;;;;;;;6.30;99.90;;;;;;5093383;28;20280;-66
2022/11/17 12:49:30;;;;;;;;;;;6.30;99.90;;;;;;5093772;28;20376;-67
2022/11/17 12:51:58;;;;;;;;;;;6.30;99.90;;;;;;5109712;28;19920;-67
2022/11/17 12:54:30;;;;;;;;;;;6.30;99.90;;;;;;5059336;28;20010;-67
2022/11/17 12:56:55;;;;;;;;;;;6.30;99.90;;;;;;5075441;28;19974;-68
2022/11/17 12:59:36;;;;;;;;;;;6.30;99.90;;;;;;5093494;28;20389;-66
2022/11/17 13:02:11;;;;;;;;;;;6.30;99.90;;;;;;5075191;28;19988;-66
2022/11/17 13:04:42;;;;;;;;;;;6.30;99.90;;;;;;5093262;28;19920;-67
2022/11/17 13:07:19;;;;;;;12.70;10.50;;;6.30;99.90;;;;;;5093022;28;19919;-67
2022/11/17 13:09:52;;;;;;;12.82;9.45;;;6.30;99.90;;;;;;5108574;28;20052;-69
2022/11/17 13:12:21;;;;;;;;;;;6.40;99.90;;;;;;5093492;28;19974;-68
2022/11/17 13:14:54;;;;;;;;;;;6.40;99.90;;;;;;5108898;28;20302;-68
2022/11/17 13:17:23;;;;;;;;;;;6.40;99.90;;;;;;5109001;28;20003;-67
2022/11/17 13:19:56;;;;;;;;;;;6.40;99.90;;;;;;5092691;28;20285;-68
2022/11/17 13:22:22;;;;;;;;;;;6.40;99.90;;;;;;5093158;28;19920;-67
2022/11/17 13:25:36;;;;;;;;;;;6.50;99.90;;;;;;5128649;27;19925;-67
2022/11/17 13:28:01;;;;;;;;;;;6.50;99.90;;;;;;5081080;28;19928;-66
2022/11/17 13:30:28;;;;;;;;;;;6.60;99.90;;;;;;5108633;28;19924;-66
2022/11/17 13:32:54;;;;;;;;;;;6.60;99.90;;;;;;5089732;28;20053;-67
2022/11/17 13:35:22;;;;;;;;;;;6.60;99.90;;;;;;5108658;28;19928;-67
2022/11/17 13:38:06;;;;;;;;;;;6.60;99.90;;;;;;5099528;28;20015;-68
2022/11/17 13:40:33;;;;;;;;;;;6.60;99.90;;;;;;5108297;28;19931;-68
2022/11/17 13:43:00;;;;;;;;;;;6.60;99.90;;;;;;5090072;28;19927;-68
2022/11/17 13:45:26;;;;;;;;;;;6.60;99.90;;;;;;5105366;28;19935;-67
2022/11/17 13:47:53;;;;;;;;;;;6.70;99.90;;;;;;5104965;28;20289;-67
2022/11/17 13:50:23;;;;;;;;;;;6.60;99.90;;;;;;5108108;28;20081;-67
2022/11/17 13:52:53;;;;;;;;;;;6.60;99.90;;;;;;5105212;28;19924;-67
2022/11/17 13:55:20;;;;;;;;;;;6.70;99.90;;;;;;5107897;28;19923;-68
2022/11/17 13:58:04;;;;;;;;;;;6.70;99.90;;;;;;5108130;28;20076;-69
2022/11/17 14:00:30;;;;;;;;;;;6.70;99.90;;;;;;5107061;28;19928;-67
2022/11/17 14:02:57;;;;;;;;;;;6.70;99.90;;;;;;5112308;28;19928;-67
2022/11/17 14:05:24;;;;;;;;;;;6.90;99.90;;;;;;5124179;28;19928;-67
2022/11/17 14:07:51;;;;;;;;;;;6.60;99.90;;;;;;5116133;28;19943;-67
2022/11/17 14:10:20;;;;;;;;;;;6.70;99.90;;;;;;5097507;27;19928;-68
2022/11/17 14:12:52;;;;;;;;;;;6.70;99.90;;;;;;5120023;28;20054;-67
2022/11/17 14:15:24;;;;;;;;;;;6.60;99.90;;;;;;5118766;28;19927;-67
2022/11/17 14:17:54;;;;;;;;;;;6.60;99.90;;;;;;5161433;27;20377;-68
2022/11/17 14:20:22;;;;;;;;;;;6.60;99.90;;;;;;5111023;28;20734;-68
2022/11/17 14:23:17;;;;;;;;;;;6.60;99.90;;;;;;5110341;28;20022;-68
2022/11/17 14:25:44;;;;;;;;;;;6.50;99.90;;;;;;5121271;27;19970;-67
2022/11/17 14:28:11;;;;;;;;;;;6.60;99.90;;;;;;5123299;28;19923;-67
2022/11/17 14:30:37;;;;;;;;;;;6.60;99.90;;;;;;5095569;28;20368;-66
2022/11/17 14:33:02;;;;;;;;;;;7.20;99.90;;;;;;5117835;28;19927;-67
2022/11/17 14:35:28;;;;;;;;;;;6.60;99.90;;;;;;5088309;28;19924;-67
2022/11/17 14:37:54;;;;;;;;;;;6.60;99.90;;;;;;5097662;28;19971;-67
2022/11/17 14:40:19;;;;;;;;;;;6.60;99.90;;;;;;5111654;28;19924;-67
2022/11/17 14:42:45;;;;;;;;;;;6.60;99.90;;;;;;5107730;28;19931;-67
2022/11/17 14:45:12;;;;;;;;;;;6.60;99.90;;;;;;5081558;28;19951;-66
2022/11/17 14:47:37;;;;;;;;;;;6.60;99.90;;;;;;5097205;28;20438;-67
2022/11/17 14:50:03;;;;;;;;;;;6.60;99.90;;;;;;5083848;28;19932;-68
2022/11/17 14:52:29;;;;;;;;;;;6.60;99.90;;;;;;5077254;28;19928;-67
2022/11/17 14:54:54;;;;;;;;;;;6.70;99.90;;;;;;5070546;28;19935;-67
2022/11/17 14:57:20;;;;;;;;;;;6.70;99.90;;;;;;5094140;28;19924;-68
2022/11/17 14:59:45;;;;;;;;;;;6.60;99.90;;;;;;5089716;28;20435;-68
2022/11/17 15:02:11;;;;;;;;;;;6.60;99.90;;;;;;5069799;28;19928;-67